createdAt,value
2018-07-12T00:01:48.069Z,4.60
2018-07-12T00:04:15.410Z,6.07
2018-07-12T00:06:42.731Z,6.13
2018-07-12T00:09:10.070Z,5.67
2018-07-12T00:11:37.408Z,5.77
2018-07-12T00:14:04.711Z,5.63
2018-07-12T00:16:32.052Z,5.43
2018-07-12T00:18:59.818Z,6.30
2018-07-12T00:21:27.222Z,5.77
2018-07-12T00:23:54.726Z,5.93
2018-07-12T00:26:22.271Z,5.60
2018-07-12T00:28:49.703Z,5.63
2018-07-12T00:31:16.990Z,5.13
2018-07-12T00:33:44.430Z,4.47
2018-07-12T00:36:12.219Z,4.93
2018-07-12T00:38:39.614Z,5.50
2018-07-12T00:41:06.936Z,4.87
2018-07-12T00:43:34.212Z,5.67
2018-07-12T00:46:01.578Z,5.93
2018-07-12T00:48:28.922Z,6.97
2018-07-12T00:50:56.572Z,6.73
2018-07-12T00:53:24.254Z,6.80
2018-07-12T00:55:51.538Z,6.50
2018-07-12T00:58:18.815Z,6.17
2018-07-12T01:00:46.101Z,6.50
2018-07-12T01:03:13.502Z,6.53
2018-07-12T01:05:40.858Z,5.37
2018-07-12T01:08:08.778Z,6.67
2018-07-12T01:10:36.900Z,6.40
2018-07-12T01:13:04.220Z,6.10
2018-07-12T01:15:31.765Z,6.57
2018-07-12T01:17:59.095Z,5.77
2018-07-12T01:20:26.422Z,6.47
2018-07-12T01:22:53.757Z,5.77
2018-07-12T01:25:21.054Z,6.70
2018-07-12T01:27:48.339Z,6.20
2018-07-12T01:30:15.928Z,6.57
2018-07-12T01:32:43.245Z,6.67
2018-07-12T01:35:10.563Z,6.90
2018-07-12T01:37:37.908Z,6.80
2018-07-12T01:40:05.367Z,7.20
2018-07-12T01:42:32.979Z,6.60
2018-07-12T01:45:00.641Z,6.60
2018-07-12T01:47:28.000Z,6.40
2018-07-12T01:49:55.322Z,6.70
2018-07-12T01:52:22.641Z,7.13
2018-07-12T01:54:49.915Z,7.30
2018-07-12T01:57:17.500Z,6.27
2018-07-12T01:59:44.829Z,6.63
2018-07-12T02:02:12.084Z,6.97
2018-07-12T02:04:39.361Z,7.43
2018-07-12T02:07:06.652Z,7.13
2018-07-12T02:09:33.942Z,7.10
2018-07-12T02:12:01.588Z,7.20
2018-07-12T02:14:29.061Z,6.27
2018-07-12T02:16:56.344Z,7.10
2018-07-12T02:19:23.783Z,7.37
2018-07-12T02:21:51.137Z,7.63
2018-07-12T02:24:18.428Z,6.27
2018-07-12T02:26:45.819Z,6.87
2018-07-12T02:29:13.169Z,8.07
2018-07-12T02:31:40.436Z,7.70
2018-07-12T02:34:08.074Z,7.83
2018-07-12T02:36:35.434Z,7.80
2018-07-12T02:39:02.794Z,8.30
2018-07-12T02:41:30.088Z,7.57
2018-07-12T02:43:57.365Z,7.73
2018-07-12T02:46:25.095Z,7.57
2018-07-12T02:48:52.941Z,7.67
2018-07-12T02:51:20.269Z,7.67
2018-07-12T02:53:47.558Z,7.83
2018-07-12T02:56:14.850Z,9.43
2018-07-12T02:58:42.232Z,9.13
2018-07-12T03:01:09.782Z,8.97
2018-07-12T03:03:37.081Z,8.30
2018-07-12T03:06:04.503Z,7.53
2018-07-12T03:08:31.845Z,8.00
2018-07-12T03:10:59.335Z,7.60
2018-07-12T03:13:26.919Z,7.77
2018-07-12T03:15:54.268Z,7.37
2018-07-12T03:18:21.540Z,7.20
2018-07-12T03:20:49.157Z,7.87
2018-07-12T03:23:16.796Z,7.90
2018-07-12T03:25:44.200Z,7.33
2018-07-12T03:28:11.923Z,8.37
2018-07-12T03:30:39.295Z,7.97
2018-07-12T03:33:06.583Z,8.50
2018-07-12T03:35:33.897Z,8.23
2018-07-12T03:38:01.156Z,8.17
2018-07-12T03:40:28.416Z,7.43
2018-07-12T03:42:55.790Z,8.50
2018-07-12T03:45:23.065Z,8.33
2018-07-12T03:47:50.400Z,8.63
2018-07-12T03:50:17.940Z,8.87
2018-07-12T03:52:45.233Z,7.87
2018-07-12T03:55:12.771Z,8.17
2018-07-12T03:57:40.122Z,8.37
2018-07-12T04:00:07.388Z,7.70
2018-07-12T04:02:34.633Z,7.20
2018-07-12T04:05:01.992Z,7.03
2018-07-12T04:07:29.395Z,7.47
2018-07-12T04:09:56.672Z,7.07
2018-07-12T04:12:24.040Z,6.87
2018-07-12T04:14:51.344Z,6.30
2018-07-12T04:17:36.368Z,6.00
2018-07-12T04:20:04.893Z,7.30
2018-07-12T04:22:33.671Z,6.70
2018-07-12T04:25:00.965Z,6.83
2018-07-12T04:27:28.494Z,6.40
2018-07-12T04:29:57.211Z,6.37
2018-07-12T04:32:24.650Z,6.77
2018-07-12T04:34:52.604Z,7.00
2018-07-12T04:37:20.299Z,7.37
2018-07-12T04:39:47.653Z,6.63
2018-07-12T04:42:14.933Z,7.27
2018-07-12T04:44:42.261Z,6.63
2018-07-12T04:47:09.647Z,6.10
2018-07-12T04:49:37.005Z,7.37
2018-07-12T04:52:04.291Z,6.47
2018-07-12T04:54:31.563Z,6.73
2018-07-12T04:56:58.901Z,5.87
2018-07-12T04:59:26.927Z,6.00
2018-07-12T05:01:54.253Z,5.70
2018-07-12T05:04:21.556Z,6.00
2018-07-12T05:06:48.835Z,6.03
2018-07-12T05:09:16.109Z,5.70
2018-07-12T05:11:43.677Z,5.90
2018-07-12T05:14:11.322Z,5.70
2018-07-12T05:16:38.593Z,5.70
2018-07-12T05:19:05.992Z,6.13
2018-07-12T05:21:33.583Z,5.50
2018-07-12T05:24:01.035Z,5.40
2018-07-12T05:26:28.545Z,5.13
2018-07-12T05:28:55.976Z,5.87
2018-07-12T05:31:23.359Z,6.37
2018-07-12T05:33:50.896Z,5.63
2018-07-12T05:36:32.241Z,5.90
2018-07-12T05:39:01.610Z,6.10
2018-07-12T05:41:30.097Z,5.93
2018-07-12T05:43:58.926Z,6.60
2018-07-12T05:46:27.477Z,7.03
2018-07-12T05:48:56.296Z,6.80
2018-07-12T05:51:25.660Z,6.20
2018-07-12T05:53:55.198Z,6.10
2018-07-12T05:56:24.133Z,7.50
2018-07-12T05:58:53.213Z,7.47
2018-07-12T06:01:33.352Z,7.37
2018-07-12T06:04:01.741Z,7.97
2018-07-12T06:06:30.147Z,7.53
2018-07-12T06:09:00.201Z,7.53
2018-07-12T06:11:29.896Z,7.87
2018-07-12T06:13:58.560Z,7.40
2018-07-12T06:16:27.029Z,7.90
2018-07-12T06:18:55.556Z,8.17
2018-07-12T06:21:24.517Z,7.80
2018-07-12T06:23:53.304Z,6.87
2018-07-12T06:26:21.877Z,6.93
2018-07-12T06:28:51.425Z,6.33
2018-07-12T06:31:20.052Z,6.40
2018-07-12T06:33:54.138Z,7.10
2018-07-12T06:36:23.093Z,5.97
2018-07-12T06:38:51.691Z,6.43
2018-07-12T06:41:20.230Z,6.87
2018-07-12T06:43:48.991Z,6.63
2018-07-12T06:46:22.185Z,7.03
2018-07-12T06:49:14.234Z,6.20
2018-07-12T06:54:35.419Z,6.83
2018-07-12T06:57:03.834Z,7.03
2018-07-12T06:59:33.052Z,6.40
2018-07-12T07:02:01.825Z,6.27
2018-07-12T07:04:30.348Z,5.97
2018-07-12T07:06:59.689Z,6.00
2018-07-12T07:09:28.287Z,6.43
2018-07-12T07:11:57.597Z,5.37
2018-07-12T07:14:27.244Z,6.43
2018-07-12T07:16:55.884Z,6.03
2018-07-12T07:19:24.162Z,5.17
2018-07-12T07:21:53.069Z,5.33
2018-07-12T07:24:21.608Z,5.17
2018-07-12T07:26:51.120Z,5.57
2018-07-12T07:32:40.990Z,4.57
2018-07-12T07:35:14.588Z,4.00
2018-07-12T07:37:56.977Z,5.13
2018-07-12T07:40:34.606Z,4.50
2018-07-12T07:43:11.144Z,4.60
2018-07-12T07:45:39.516Z,4.03
2018-07-12T07:48:08.364Z,3.90
2018-07-12T07:50:37.249Z,5.30
2018-07-12T07:53:05.641Z,4.70
2018-07-12T07:55:34.088Z,4.90
2018-07-12T07:58:02.732Z,3.80
2018-07-12T08:00:31.421Z,4.43
2018-07-12T08:03:00.117Z,4.33
2018-07-12T08:05:28.590Z,4.50
2018-07-12T08:07:57.254Z,4.97
2018-07-12T08:10:25.761Z,3.93
2018-07-12T08:12:54.343Z,3.73
2018-07-12T08:15:23.189Z,4.10
2018-07-12T08:17:51.605Z,4.37
2018-07-12T08:20:21.561Z,3.57
2018-07-12T08:22:50.357Z,3.87
2018-07-12T08:25:19.813Z,3.77
2018-07-12T08:27:59.737Z,3.87
2018-07-12T08:30:28.178Z,3.63
2018-07-12T08:33:00.969Z,4.40
2018-07-12T08:35:29.476Z,4.10
2018-07-12T08:37:58.199Z,4.63
2018-07-12T08:40:26.767Z,3.43
2018-07-12T08:42:55.194Z,4.43
2018-07-12T08:45:23.729Z,4.17
2018-07-12T08:47:52.223Z,4.00
2018-07-12T08:50:21.008Z,4.87
2018-07-12T08:52:49.189Z,3.67
2018-07-12T08:55:17.713Z,3.87
2018-07-12T08:57:46.652Z,3.83
2018-07-12T09:00:14.947Z,3.50
2018-07-12T09:02:43.532Z,3.63
2018-07-12T09:05:12.050Z,3.17
2018-07-12T09:07:40.448Z,3.90
2018-07-12T09:10:08.941Z,3.23
2018-07-12T09:12:37.824Z,3.07
2018-07-12T09:15:06.366Z,3.67
2018-07-12T09:17:34.504Z,3.57
2018-07-12T09:20:02.883Z,3.30
2018-07-12T09:22:31.383Z,3.70
2018-07-12T09:24:59.972Z,3.67
2018-07-12T09:27:28.356Z,4.27
2018-07-12T09:29:57.484Z,3.50
2018-07-12T09:32:25.796Z,4.10
2018-07-12T09:34:54.362Z,4.20
2018-07-12T09:37:22.696Z,3.83
2018-07-12T09:39:50.785Z,4.30
2018-07-12T09:42:19.140Z,3.63
2018-07-12T09:44:47.565Z,4.03
2018-07-12T09:47:15.917Z,4.20
2018-07-12T09:49:44.338Z,3.73
2018-07-12T09:52:17.901Z,3.93
2018-07-12T09:54:46.268Z,3.60
2018-07-12T09:57:26.108Z,4.00
2018-07-12T09:59:54.526Z,3.60
2018-07-12T10:02:28.314Z,3.23
2018-07-12T10:04:56.375Z,3.47
2018-07-12T10:07:31.022Z,3.53
2018-07-12T10:09:59.449Z,3.30
2018-07-12T10:12:37.272Z,3.23
2018-07-12T10:15:10.667Z,3.27
2018-07-12T10:17:48.310Z,2.53
2018-07-12T10:20:16.702Z,3.07
2018-07-12T10:22:45.057Z,3.00
2018-07-12T10:25:13.472Z,2.40
2018-07-12T10:27:41.777Z,3.03
2018-07-12T10:30:09.780Z,3.57
2018-07-12T10:32:38.083Z,2.90
2018-07-12T10:35:06.548Z,2.80
2018-07-12T10:37:34.978Z,2.70
2018-07-12T10:40:21.684Z,3.10
2018-07-12T10:42:51.799Z,3.43
2018-07-12T10:45:20.141Z,2.73
2018-07-12T10:47:48.533Z,3.20
2018-07-12T10:50:16.867Z,2.77
2018-07-12T10:52:45.177Z,2.80
2018-07-12T10:55:13.572Z,2.43
2018-07-12T10:57:41.691Z,3.77
2018-07-12T11:00:11.088Z,3.50
2018-07-12T11:02:39.412Z,3.47
2018-07-12T11:05:07.829Z,2.90
2018-07-12T11:07:37.181Z,2.87
2018-07-12T11:10:05.216Z,2.33
2018-07-12T11:12:33.685Z,2.70
2018-07-12T11:15:01.982Z,2.73
2018-07-12T11:17:30.332Z,2.57
2018-07-12T11:19:58.615Z,2.80
2018-07-12T11:22:27.007Z,2.40
2018-07-12T11:24:55.117Z,2.73
2018-07-12T11:27:23.445Z,3.20
2018-07-12T11:29:54.656Z,2.60
2018-07-12T11:32:22.940Z,2.33
2018-07-12T11:34:51.770Z,2.80
2018-07-12T11:37:25.117Z,2.43
2018-07-12T11:39:53.849Z,2.17
2018-07-12T11:42:22.174Z,2.43
2018-07-12T11:44:50.680Z,2.60
2018-07-12T11:47:19.467Z,2.70
2018-07-12T11:49:47.743Z,3.20
2018-07-12T11:52:16.347Z,2.73
2018-07-12T11:54:44.780Z,2.53
2018-07-12T11:57:13.064Z,2.63
2018-07-12T11:59:41.401Z,2.30
2018-07-12T12:02:09.764Z,3.03
2018-07-12T12:04:37.855Z,2.17
2018-07-12T12:07:05.866Z,2.30
2018-07-12T12:09:34.154Z,2.83
2018-07-12T12:12:02.578Z,2.67
2018-07-12T12:14:30.885Z,2.60
2018-07-12T12:16:59.304Z,3.23
2018-07-12T12:19:27.626Z,2.80
2018-07-12T12:21:55.989Z,3.40
2018-07-12T12:24:24.337Z,2.87
2018-07-12T12:26:53.122Z,3.07
2018-07-12T12:29:22.119Z,2.90
2018-07-12T12:31:50.555Z,3.30
2018-07-12T12:34:18.970Z,3.23
2018-07-12T12:36:47.288Z,2.77
2018-07-12T12:39:15.596Z,2.57
2018-07-12T12:41:43.986Z,2.90
2018-07-12T12:44:12.277Z,2.60
2018-07-12T12:46:40.592Z,3.27
2018-07-12T12:49:08.610Z,3.10
2018-07-12T12:51:36.909Z,3.90
2018-07-12T12:54:05.204Z,3.13
2018-07-12T12:56:33.481Z,2.60
2018-07-12T12:59:01.784Z,3.13
2018-07-12T13:01:30.049Z,3.10
2018-07-12T13:03:58.337Z,3.60
2018-07-12T13:06:26.701Z,2.87
2018-07-12T13:08:54.999Z,2.83
2018-07-12T13:11:23.277Z,2.57
2018-07-12T13:13:51.919Z,3.33
2018-07-12T13:16:20.217Z,2.60
2018-07-12T13:18:48.516Z,2.83
2018-07-12T13:21:16.810Z,2.33
2018-07-12T13:23:45.108Z,2.70
2018-07-12T13:26:13.466Z,2.60
2018-07-12T13:28:41.777Z,3.30
2018-07-12T13:31:10.131Z,2.67
2018-07-12T13:33:38.413Z,2.73
2018-07-12T13:36:07.520Z,3.00
2018-07-12T13:38:35.848Z,3.10
2018-07-12T13:41:04.214Z,2.63
2018-07-12T13:43:32.525Z,2.60
2018-07-12T13:46:00.839Z,2.80
2018-07-12T13:48:29.157Z,2.73
2018-07-12T13:50:57.436Z,2.63
2018-07-12T13:53:25.528Z,2.90
2018-07-12T13:55:53.749Z,3.00
2018-07-12T13:58:22.024Z,2.77
2018-07-12T14:00:50.443Z,2.87
2018-07-12T14:03:18.730Z,2.93
2018-07-12T14:05:47.047Z,2.80
2018-07-12T14:08:15.345Z,2.60
2018-07-12T14:10:43.649Z,2.33
2018-07-12T14:13:11.684Z,2.80
2018-07-12T14:15:39.973Z,3.20
2018-07-12T14:18:08.303Z,3.10
2018-07-12T14:20:36.329Z,2.60
2018-07-12T14:23:04.616Z,2.77
2018-07-12T14:25:32.904Z,2.67
2018-07-12T14:28:01.574Z,2.67
2018-07-12T14:30:29.887Z,2.50
2018-07-12T14:32:58.244Z,2.43
2018-07-12T14:35:26.315Z,2.30
2018-07-12T14:37:54.750Z,2.93
2018-07-12T14:40:23.341Z,2.83
2018-07-12T14:42:51.642Z,3.07
2018-07-12T14:45:19.927Z,2.20
2018-07-12T14:47:48.276Z,2.40
2018-07-12T14:50:16.590Z,2.43
2018-07-12T14:52:44.941Z,2.60
2018-07-12T14:55:13.232Z,3.27
2018-07-12T14:57:41.550Z,2.57
2018-07-12T15:00:09.962Z,2.90
2018-07-12T15:02:38.657Z,2.47
2018-07-12T15:05:07.141Z,3.20
2018-07-12T15:07:36.205Z,2.80
2018-07-12T15:10:04.622Z,2.57
2018-07-12T15:12:32.896Z,2.53
2018-07-12T15:15:01.605Z,2.73
2018-07-12T15:17:29.767Z,2.73
2018-07-12T15:19:58.138Z,2.63
2018-07-12T15:22:26.518Z,2.77
2018-07-12T15:24:54.895Z,3.30
2018-07-12T15:27:23.267Z,2.67
2018-07-12T15:29:51.800Z,2.43
2018-07-12T15:32:20.140Z,2.60
2018-07-12T15:34:48.901Z,2.33
2018-07-12T15:37:17.195Z,2.77
2018-07-12T15:39:45.697Z,2.63
2018-07-12T15:42:13.998Z,2.33
2018-07-12T15:44:42.301Z,2.90
2018-07-12T15:47:10.391Z,2.87
2018-07-12T15:49:38.388Z,3.43
2018-07-12T15:52:06.792Z,4.00
2018-07-12T15:54:35.172Z,5.37
2018-07-12T15:57:03.519Z,3.23
2018-07-12T15:59:31.856Z,2.87
2018-07-12T16:02:00.166Z,2.60
2018-07-12T16:04:28.905Z,2.80
2018-07-12T16:06:57.446Z,2.90
2018-07-12T16:09:25.843Z,2.90
2018-07-12T16:11:54.621Z,2.97
2018-07-12T16:14:22.993Z,2.50
2018-07-12T16:16:51.687Z,2.63
2018-07-12T16:19:19.759Z,2.77
2018-07-12T16:21:48.179Z,2.57
2018-07-12T16:24:16.534Z,2.90
2018-07-12T16:26:45.135Z,3.17
2018-07-12T16:29:13.445Z,2.60
2018-07-12T16:31:41.902Z,2.73
2018-07-12T16:34:10.289Z,3.50
2018-07-12T16:36:38.666Z,3.10
2018-07-12T16:39:07.510Z,2.90
2018-07-12T16:41:35.569Z,2.60
2018-07-12T16:44:04.341Z,4.20
2018-07-12T16:46:32.720Z,3.43
2018-07-12T16:49:01.050Z,2.53
2018-07-12T16:51:29.444Z,2.70
2018-07-12T16:53:57.830Z,3.00
2018-07-12T16:56:26.110Z,3.23
2018-07-12T16:58:54.630Z,3.07
2018-07-12T17:01:23.108Z,3.33
2018-07-12T17:03:51.488Z,3.77
2018-07-12T17:06:19.793Z,4.13
2018-07-12T17:08:48.272Z,2.73
2018-07-12T17:11:16.640Z,3.00
2018-07-12T17:13:44.992Z,3.03
2018-07-12T17:16:13.448Z,3.03
2018-07-12T17:18:41.807Z,3.20
2018-07-12T17:21:10.118Z,3.23
2018-07-12T17:23:38.484Z,3.07
2018-07-12T17:26:06.856Z,2.67
2018-07-12T17:28:35.184Z,3.03
2018-07-12T17:31:03.611Z,2.90
2018-07-12T17:33:31.958Z,6.83
2018-07-12T17:36:00.345Z,3.43
2018-07-12T17:38:28.733Z,3.53
2018-07-12T17:40:58.203Z,3.50
2018-07-12T17:43:26.569Z,3.30
2018-07-12T17:45:55.043Z,3.60
2018-07-12T17:48:24.740Z,3.60
2018-07-12T17:50:53.399Z,3.33
2018-07-12T17:53:21.786Z,3.57
2018-07-12T17:55:49.827Z,3.23
2018-07-12T17:58:18.275Z,4.07
2018-07-12T18:00:46.639Z,3.53
2018-07-12T18:03:15.045Z,3.80
2018-07-12T18:05:43.681Z,3.77
2018-07-12T18:08:15.876Z,3.33
2018-07-12T18:10:44.202Z,3.70
2018-07-12T18:13:12.572Z,4.50
2018-07-12T18:15:41.064Z,3.30
2018-07-12T18:18:09.475Z,3.27
2018-07-12T18:20:37.836Z,3.30
2018-07-12T18:23:06.396Z,3.90
2018-07-12T18:25:34.608Z,3.83
2018-07-12T18:28:03.152Z,3.53
2018-07-12T18:30:31.678Z,3.40
2018-07-12T18:33:01.117Z,2.73
2018-07-12T18:35:29.939Z,3.00
2018-07-12T18:37:58.392Z,2.90
2018-07-12T18:40:26.785Z,4.50
2018-07-12T18:42:55.466Z,3.67
2018-07-12T18:45:24.177Z,3.37
2018-07-12T18:47:53.139Z,3.33
2018-07-12T18:50:21.586Z,3.43
2018-07-12T18:52:50.372Z,3.20
2018-07-12T18:55:19.373Z,3.30
2018-07-12T18:57:48.016Z,2.80
2018-07-12T19:00:17.112Z,3.10
2018-07-12T19:02:45.901Z,3.10
2018-07-12T19:05:14.342Z,2.93
2018-07-12T19:07:43.508Z,3.00
2018-07-12T19:10:12.169Z,3.50
2018-07-12T19:12:41.068Z,2.67
2018-07-12T19:15:09.830Z,3.07
2018-07-12T19:17:38.368Z,2.80
2018-07-12T19:20:06.459Z,3.27
2018-07-12T19:22:35.402Z,3.13
2018-07-12T19:25:04.022Z,3.23
2018-07-12T19:27:32.618Z,3.13
2018-07-12T19:30:01.167Z,2.83
2018-07-12T19:32:30.484Z,4.10
2018-07-12T19:34:59.542Z,3.50
2018-07-12T19:37:28.727Z,3.40
2018-07-12T19:39:57.592Z,2.97
2018-07-12T19:42:26.280Z,3.60
2018-07-12T19:44:55.832Z,3.60
2018-07-12T19:47:24.957Z,3.10
2018-07-12T19:49:53.700Z,2.83
2018-07-12T19:52:21.950Z,3.53
2018-07-12T19:54:50.445Z,2.87
2018-07-12T19:57:19.455Z,3.13
2018-07-12T19:59:47.680Z,3.10
2018-07-12T20:02:16.949Z,3.27
2018-07-12T20:04:45.957Z,3.07
2018-07-12T20:07:14.672Z,2.63
2018-07-12T20:09:43.310Z,2.80
2018-07-12T20:12:11.687Z,2.87
2018-07-12T20:14:40.069Z,3.07
2018-07-12T20:17:10.065Z,2.80
2018-07-12T20:19:38.788Z,2.70
2018-07-12T20:22:07.465Z,2.93
2018-07-12T20:24:36.264Z,2.97
2018-07-12T20:27:04.832Z,3.10
2018-07-12T20:29:33.425Z,2.77
2018-07-12T20:32:01.826Z,2.87
2018-07-12T20:34:30.657Z,2.70
2018-07-12T20:36:59.374Z,3.10
2018-07-12T20:39:28.014Z,3.07
2018-07-12T20:41:56.905Z,3.17
2018-07-12T20:44:26.772Z,2.50
2018-07-12T20:46:55.358Z,3.03
2018-07-12T20:49:24.047Z,2.90
2018-07-12T20:51:53.178Z,3.33
2018-07-12T20:54:21.666Z,2.60
2018-07-12T20:56:50.291Z,2.87
2018-07-12T20:59:19.324Z,2.57
2018-07-12T21:01:47.766Z,3.80
2018-07-12T21:04:16.448Z,3.73
2018-07-12T21:06:44.896Z,3.57
2018-07-12T21:09:13.449Z,2.80
2018-07-12T21:11:42.251Z,2.83
2018-07-12T21:14:10.825Z,2.50
2018-07-12T21:16:39.266Z,3.37
2018-07-12T21:19:07.682Z,3.10
2018-07-12T21:21:36.113Z,3.07
2018-07-12T21:24:04.550Z,2.57
2018-07-12T21:26:32.625Z,3.30
2018-07-12T21:29:01.044Z,2.87
2018-07-12T21:31:29.598Z,2.90
2018-07-12T21:33:58.577Z,3.03
2018-07-12T21:36:27.490Z,3.00
2018-07-12T21:38:55.966Z,2.47
2018-07-12T21:44:45.156Z,3.00
2018-07-12T21:47:13.891Z,3.37
2018-07-12T21:49:42.646Z,3.23
2018-07-12T21:52:11.931Z,2.83
2018-07-12T21:54:40.396Z,2.70
2018-07-12T21:57:08.701Z,3.37
2018-07-12T21:59:37.165Z,3.27
2018-07-12T22:02:05.654Z,3.53
2018-07-12T22:04:34.088Z,3.13
2018-07-12T22:07:21.786Z,2.60
2018-07-12T22:09:50.593Z,2.77
2018-07-12T22:12:18.950Z,2.70
2018-07-12T22:14:47.331Z,2.80
2018-07-12T22:17:15.491Z,3.07
2018-07-12T22:19:43.868Z,2.30
2018-07-12T22:22:12.349Z,2.93
2018-07-12T22:24:41.104Z,2.97
2018-07-12T22:27:09.468Z,2.77
2018-07-12T22:29:37.915Z,3.10
2018-07-12T22:32:07.001Z,3.40
2018-07-12T22:34:35.360Z,3.10
2018-07-12T22:37:04.445Z,2.90
2018-07-12T22:39:33.106Z,3.07
2018-07-12T22:42:01.359Z,3.93
2018-07-12T22:44:30.048Z,2.70
2018-07-12T22:46:59.342Z,2.60
2018-07-12T22:54:32.873Z,3.50
2018-07-12T22:57:04.666Z,2.93
2018-07-12T22:59:49.761Z,2.53
2018-07-12T23:02:20.603Z,3.13
2018-07-12T23:04:50.919Z,3.50
2018-07-12T23:07:18.996Z,2.90
2018-07-12T23:09:47.227Z,2.87
2018-07-12T23:12:17.525Z,2.63
2018-07-12T23:14:45.635Z,2.60
2018-07-12T23:17:14.032Z,2.83
2018-07-12T23:19:42.692Z,2.97
2018-07-12T23:22:11.258Z,2.70
2018-07-12T23:24:39.913Z,2.40
2018-07-12T23:27:08.424Z,2.67
2018-07-12T23:29:36.864Z,2.93
2018-07-12T23:32:05.562Z,2.50
2018-07-12T23:34:34.325Z,3.20
2018-07-12T23:37:02.957Z,2.17
2018-07-12T23:39:31.429Z,2.70
2018-07-12T23:42:00.088Z,3.00
2018-07-12T23:44:28.933Z,2.57
2018-07-12T23:46:57.664Z,2.33
2018-07-12T23:49:25.976Z,2.40
2018-07-12T23:51:54.709Z,2.73
2018-07-12T23:54:23.507Z,2.50
2018-07-12T23:56:52.723Z,2.97
2018-07-12T23:59:21.198Z,3.23
